Time,TemperatureF,DewpointF,PressureIn,WindDirection,WindDirectionDegrees,WindSpeedMPH,WindSpeedGustMPH,Humidity,HourlyPrecipIn,Conditions,Clouds,dailyrainin,SolarRadiationWatts/m^2,SoftwareType,DateUTC
2013-07-22 00:01:00,65.0,36.0,-100.00,WNW,284,1.0,4.0,34,0.00,,,0.00,2.000000,,2013-07-22 06:01:00,
2013-07-22 00:11:00,65.0,36.0,-100.00,WNW,284,1.0,4.0,34,0.00,,,0.00,2.000000,,2013-07-22 06:11:00,
2013-07-22 00:43:00,61.0,36.0,-100.00,WNW,290,2.0,3.0,39,0.00,,,0.00,0.000000,,2013-07-22 06:43:00,
2013-07-22 00:52:00,61.0,36.0,-100.00,WNW,290,2.0,3.0,39,0.00,,,0.00,0.000000,,2013-07-22 06:52:00,
2013-07-22 01:01:00,61.0,36.0,-100.00,WNW,290,2.0,3.0,39,0.00,,,0.00,0.000000,,2013-07-22 07:01:00,
2013-07-22 01:11:00,61.0,36.0,-100.00,WNW,290,2.0,3.0,39,0.00,,,0.00,0.000000,,2013-07-22 07:11:00,
2013-07-22 01:43:00,60.0,37.0,-100.00,West,271,3.0,6.0,42,0.00,,,0.00,0.000000,,2013-07-22 07:43:00,
2013-07-22 01:53:00,60.0,37.0,-100.00,West,271,3.0,6.0,42,0.00,,,0.00,0.000000,,2013-07-22 07:53:00,
2013-07-22 02:01:00,60.0,37.0,-100.00,West,271,3.0,6.0,42,0.00,,,0.00,0.000000,,2013-07-22 08:01:00,
2013-07-22 02:11:00,60.0,37.0,-100.00,West,271,3.0,6.0,42,0.00,,,0.00,0.000000,,2013-07-22 08:11:00,
2013-07-22 02:32:00,57.0,34.0,-100.00,West,267,3.0,5.0,42,0.00,,,0.00,0.000000,,2013-07-22 08:32:00,
2013-07-22 02:43:00,57.0,34.0,-100.00,West,267,3.0,5.0,42,0.00,,,0.00,0.000000,,2013-07-22 08:43:00,
2013-07-22 02:52:00,57.0,34.0,-100.00,West,267,3.0,5.0,42,0.00,,,0.00,0.000000,,2013-07-22 08:52:00,
2013-07-22 03:02:00,57.0,34.0,-100.00,West,267,3.0,5.0,42,0.00,,,0.00,0.000000,,2013-07-22 09:02:00,
2013-07-22 03:11:00,57.0,34.0,-100.00,West,267,3.0,5.0,42,0.00,,,0.00,0.000000,,2013-07-22 09:11:00,
2013-07-22 03:33:00,54.0,34.0,-100.00,WNW,296,1.0,5.0,47,0.00,,,0.00,0.000000,,2013-07-22 09:33:00,
2013-07-22 03:42:00,54.0,34.0,-100.00,WNW,296,1.0,5.0,47,0.00,,,0.00,0.000000,,2013-07-22 09:42:00,
2013-07-22 03:52:00,54.0,34.0,-100.00,WNW,296,1.0,5.0,47,0.00,,,0.00,0.000000,,2013-07-22 09:52:00,
2013-07-22 04:01:00,54.0,34.0,-100.00,WNW,296,1.0,5.0,47,0.00,,,0.00,0.000000,,2013-07-22 10:01:00,
2013-07-22 04:11:00,54.0,34.0,-100.00,WNW,296,1.0,5.0,47,0.00,,,0.00,0.000000,,2013-07-22 10:11:00,
2013-07-22 04:32:00,52.0,34.0,-100.00,SW,236,3.0,6.0,51,0.00,,,0.00,0.000000,,2013-07-22 10:32:00,
2013-07-22 04:43:00,52.0,34.0,-100.00,SW,236,3.0,6.0,51,0.00,,,0.00,0.000000,,2013-07-22 10:43:00,
2013-07-22 04:53:00,52.0,34.0,-100.00,SW,236,3.0,6.0,51,0.00,,,0.00,0.000000,,2013-07-22 10:53:00,
2013-07-22 05:01:00,52.0,34.0,-100.00,SW,236,3.0,6.0,51,0.00,,,0.00,0.000000,,2013-07-22 11:01:00,
2013-07-22 05:11:00,52.0,34.0,-100.00,SW,236,3.0,6.0,51,0.00,,,0.00,0.000000,,2013-07-22 11:11:00,
2013-07-22 05:32:00,50.0,34.0,-100.00,SSW,203,3.0,6.0,55,0.00,,,0.00,0.000000,,2013-07-22 11:32:00,
2013-07-22 05:43:00,50.0,34.0,-100.00,SSW,203,3.0,6.0,55,0.00,,,0.00,0.000000,,2013-07-22 11:43:00,
2013-07-22 05:52:00,50.0,34.0,-100.00,SSW,203,3.0,6.0,55,0.00,,,0.00,0.000000,,2013-07-22 11:52:00,
2013-07-22 06:02:00,50.0,34.0,-100.00,SSW,203,3.0,6.0,55,0.00,,,0.00,0.000000,,2013-07-22 12:02:00,
2013-07-22 06:11:00,50.0,34.0,-100.00,SSW,203,3.0,6.0,55,0.00,,,0.00,0.000000,,2013-07-22 12:11:00,
2013-07-22 06:43:00,49.0,34.0,-100.00,SW,220,3.0,6.0,56,0.00,,,0.00,0.000000,,2013-07-22 12:43:00,
2013-07-22 06:53:00,49.0,34.0,-100.00,SW,220,3.0,6.0,56,0.00,,,0.00,0.000000,,2013-07-22 12:53:00,
2013-07-22 07:01:00,49.0,34.0,-100.00,SW,220,3.0,6.0,56,0.00,,,0.00,0.000000,,2013-07-22 13:01:00,
2013-07-22 07:11:00,49.0,34.0,-100.00,SW,220,3.0,6.0,56,0.00,,,0.00,0.000000,,2013-07-22 13:11:00,
2013-07-22 07:43:00,46.0,34.0,-100.00,SSW,202,3.0,6.0,63,0.00,,,0.00,1.000000,,2013-07-22 13:43:00,
2013-07-22 07:53:00,46.0,34.0,-100.00,SSW,202,3.0,6.0,63,0.00,,,0.00,1.000000,,2013-07-22 13:53:00,
2013-07-22 08:01:00,46.0,34.0,-100.00,SSW,202,3.0,6.0,63,0.00,,,0.00,1.000000,,2013-07-22 14:01:00,
2013-07-22 08:11:00,46.0,34.0,-100.00,SSW,202,3.0,6.0,63,0.00,,,0.00,1.000000,,2013-07-22 14:11:00,
2013-07-22 08:43:00,46.0,34.0,-100.00,SW,220,2.0,5.0,63,0.00,,,0.00,19.000000,,2013-07-22 14:43:00,
2013-07-22 08:53:00,46.0,34.0,-100.00,SW,220,2.0,5.0,63,0.00,,,0.00,19.000000,,2013-07-22 14:53:00,
2013-07-22 09:01:00,46.0,34.0,-100.00,SW,220,2.0,5.0,63,0.00,,,0.00,19.000000,,2013-07-22 15:01:00,
2013-07-22 09:11:00,46.0,34.0,-100.00,SW,220,2.0,5.0,63,0.00,,,0.00,19.000000,,2013-07-22 15:11:00,
2013-07-22 09:43:00,54.0,35.0,-100.00,SW,224,3.0,7.0,49,0.00,,,0.00,65.000000,,2013-07-22 15:43:00,
2013-07-22 09:52:00,54.0,35.0,-100.00,SW,224,3.0,7.0,49,0.00,,,0.00,65.000000,,2013-07-22 15:52:00,
2013-07-22 10:32:00,64.0,35.0,-100.00,South,191,3.0,7.0,34,0.00,,,0.00,269.000000,,2013-07-22 16:32:00,
2013-07-22 10:43:00,64.0,35.0,-100.00,South,191,3.0,7.0,34,0.00,,,0.00,269.000000,,2013-07-22 16:43:00,
2013-07-22 10:52:00,64.0,35.0,-100.00,South,191,3.0,7.0,34,0.00,,,0.00,269.000000,,2013-07-22 16:52:00,
2013-07-22 11:01:00,64.0,35.0,-100.00,South,191,3.0,7.0,34,0.00,,,0.00,269.000000,,2013-07-22 17:01:00,
2013-07-22 11:11:00,64.0,35.0,-100.00,South,191,3.0,7.0,34,0.00,,,0.00,269.000000,,2013-07-22 17:11:00,
2013-07-22 11:43:00,74.0,40.0,-100.00,SE,145,3.0,6.0,29,0.00,,,0.00,615.000000,,2013-07-22 17:43:00,
2013-07-22 11:52:00,74.0,40.0,-100.00,SE,145,3.0,6.0,29,0.00,,,0.00,615.000000,,2013-07-22 17:52:00,
2013-07-22 12:54:00,83.0,31.0,-100.00,NE,56,3.0,6.0,15,0.00,,,0.00,810.000000,,2013-07-22 18:54:00,
2013-07-22 13:02:00,83.0,31.0,-100.00,NE,56,3.0,6.0,15,0.00,,,0.00,810.000000,,2013-07-22 19:02:00,
2013-07-22 13:46:00,87.0,16.0,-100.00,SSE,162,6.0,13.0,7,0.00,,,0.00,965.000000,,2013-07-22 19:46:00,
2013-07-22 13:55:00,87.0,16.0,-100.00,SSE,162,6.0,13.0,7,0.00,,,0.00,965.000000,,2013-07-22 19:55:00,
2013-07-22 14:03:00,87.0,16.0,-100.00,SSE,162,6.0,13.0,7,0.00,,,0.00,965.000000,,2013-07-22 20:03:00,
2013-07-22 14:12:00,87.0,16.0,-100.00,SSE,162,6.0,13.0,7,0.00,,,0.00,965.000000,,2013-07-22 20:12:00,
2013-07-22 14:32:00,89.0,23.0,-100.00,SE,128,5.0,15.0,9,0.00,,,0.00,1059.000000,,2013-07-22 20:32:00,
2013-07-22 14:43:00,89.0,23.0,-100.00,SE,128,5.0,15.0,9,0.00,,,0.00,1059.000000,,2013-07-22 20:43:00,
2013-07-22 14:52:00,89.0,23.0,-100.00,SE,128,5.0,15.0,9,0.00,,,0.00,1059.000000,,2013-07-22 20:52:00,
2013-07-22 15:01:00,89.0,23.0,-100.00,SE,128,5.0,15.0,9,0.00,,,0.00,1059.000000,,2013-07-22 21:01:00,
2013-07-22 15:11:00,89.0,23.0,-100.00,SE,128,5.0,15.0,9,0.00,,,0.00,1059.000000,,2013-07-22 21:11:00,
2013-07-22 15:43:00,90.0,21.0,-100.00,NNE,23,4.0,12.0,8,0.00,,,0.00,1106.000000,,2013-07-22 21:43:00,
2013-07-22 15:53:00,90.0,21.0,-100.00,NNE,23,4.0,12.0,8,0.00,,,0.00,1106.000000,,2013-07-22 21:53:00,
2013-07-22 16:01:00,90.0,21.0,-100.00,NNE,23,4.0,12.0,8,0.00,,,0.00,1106.000000,,2013-07-22 22:01:00,
2013-07-22 16:11:00,90.0,21.0,-100.00,NNE,23,4.0,12.0,8,0.00,,,0.00,1106.000000,,2013-07-22 22:11:00,
2013-07-22 16:43:00,90.0,21.0,-100.00,NE,42,5.0,10.0,8,0.00,,,0.00,1071.000000,,2013-07-22 22:43:00,
2013-07-22 16:52:00,90.0,21.0,-100.00,NE,42,5.0,10.0,8,0.00,,,0.00,1071.000000,,2013-07-22 22:52:00,
2013-07-22 17:01:00,90.0,21.0,-100.00,NE,42,5.0,10.0,8,0.00,,,0.00,1071.000000,,2013-07-22 23:01:00,
2013-07-22 17:11:00,90.0,21.0,-100.00,NE,42,5.0,10.0,8,0.00,,,0.00,1071.000000,,2013-07-22 23:11:00,
2013-07-22 17:43:00,91.0,22.0,-100.00,NW,318,6.0,15.0,8,0.00,,,0.00,968.000000,,2013-07-22 23:43:00,
2013-07-22 17:52:00,91.0,22.0,-100.00,NW,318,6.0,15.0,8,0.00,,,0.00,968.000000,,2013-07-22 23:52:00,
2013-07-22 18:01:00,91.0,22.0,-100.00,NW,318,6.0,15.0,8,0.00,,,0.00,968.000000,,2013-07-23 00:01:00,
2013-07-22 18:11:00,91.0,22.0,-100.00,NW,318,6.0,15.0,8,0.00,,,0.00,968.000000,,2013-07-23 00:11:00,
2013-07-22 18:43:00,90.0,21.0,-100.00,NW,324,6.0,15.0,8,0.00,,,0.00,798.000000,,2013-07-23 00:43:00,
2013-07-22 18:52:00,90.0,21.0,-100.00,NW,324,6.0,15.0,8,0.00,,,0.00,798.000000,,2013-07-23 00:52:00,
2013-07-22 19:01:00,90.0,21.0,-100.00,NW,324,6.0,15.0,8,0.00,,,0.00,798.000000,,2013-07-23 01:01:00,
2013-07-22 19:11:00,90.0,21.0,-100.00,NW,324,6.0,15.0,8,0.00,,,0.00,798.000000,,2013-07-23 01:11:00,
2013-07-22 19:43:00,89.0,25.0,-100.00,SW,233,6.0,15.0,10,0.00,,,0.00,628.000000,,2013-07-23 01:43:00,
2013-07-22 19:53:00,89.0,25.0,-100.00,SW,233,6.0,15.0,10,0.00,,,0.00,628.000000,,2013-07-23 01:53:00,
2013-07-22 20:01:00,89.0,25.0,-100.00,SW,233,6.0,15.0,10,0.00,,,0.00,628.000000,,2013-07-23 02:01:00,
2013-07-22 20:11:00,89.0,25.0,-100.00,SW,233,6.0,15.0,10,0.00,,,0.00,628.000000,,2013-07-23 02:11:00,
2013-07-22 20:33:00,86.0,25.0,-100.00,SW,220,3.0,11.0,11,0.00,,,0.00,370.000000,,2013-07-23 02:33:00,
2013-07-22 20:43:00,86.0,25.0,-100.00,SW,220,3.0,11.0,11,0.00,,,0.00,370.000000,,2013-07-23 02:43:00,
2013-07-22 20:53:00,86.0,25.0,-100.00,SW,220,3.0,11.0,11,0.00,,,0.00,370.000000,,2013-07-23 02:53:00,
2013-07-22 21:01:00,86.0,25.0,-100.00,SW,220,3.0,11.0,11,0.00,,,0.00,370.000000,,2013-07-23 03:01:00,
2013-07-22 21:11:00,86.0,25.0,-100.00,SW,220,3.0,11.0,11,0.00,,,0.00,370.000000,,2013-07-23 03:11:00,
2013-07-22 21:43:00,78.0,32.0,-100.00,WNW,295,3.0,9.0,19,0.00,,,0.00,170.000000,,2013-07-23 03:43:00,
2013-07-22 21:52:00,78.0,32.0,-100.00,WNW,295,3.0,9.0,19,0.00,,,0.00,170.000000,,2013-07-23 03:52:00,
2013-07-22 22:01:00,78.0,32.0,-100.00,WNW,295,3.0,9.0,19,0.00,,,0.00,170.000000,,2013-07-23 04:01:00,
2013-07-22 22:11:00,78.0,32.0,-100.00,WNW,295,3.0,9.0,19,0.00,,,0.00,170.000000,,2013-07-23 04:11:00,
2013-07-22 22:43:00,68.0,31.0,-100.00,NW,308,2.0,5.0,25,0.00,,,0.00,14.000000,,2013-07-23 04:43:00,
2013-07-22 22:53:00,68.0,31.0,-100.00,NW,308,2.0,5.0,25,0.00,,,0.00,14.000000,,2013-07-23 04:53:00,
2013-07-22 23:02:00,68.0,31.0,-100.00,NW,308,2.0,5.0,25,0.00,,,0.00,14.000000,,2013-07-23 05:02:00,
2013-07-22 23:11:00,68.0,31.0,-100.00,NW,308,2.0,5.0,25,0.00,,,0.00,14.000000,,2013-07-23 05:11:00,
2013-07-22 23:44:00,63.0,29.0,-100.00,NW,311,2.0,5.0,28,0.00,,,0.00,1.000000,,2013-07-23 05:44:00,
2013-07-22 23:52:00,63.0,29.0,-100.00,NW,311,2.0,5.0,28,0.00,,,0.00,1.000000,,2013-07-23 05:52:00,